Tallahassee, FL (32317)

9:28 PM EDT on July 27, 2016 (GMT -0400)
Killearn Estates, NE Tallahassee | | Change Station

Elev 181 ft 30.52 °N, 84.20 °W | Updated 22 seconds ago

Partly Cloudy
Partly Cloudy
83.3 °F
Feels Like 82 °F
N
0.7
Wind Variable Wind from SW
Gusts 1.6 mph

Today
High -- | Low -- °F
--% Chance of Precip.
Yesterday
High -- | Low -- °F
Precip. -- in
Pressure 30.03 in
Visibility 10.0 miles
Clouds Few 5000 ft
Heat Index 82 °F
Dew Point 53 °F
Humidity 35%
Rainfall 0.00 in
Snow Depth Not available.
6:51 AM 8:33 PM
Last Quarter, 37% visible
METAR KTLH 280053Z 18004KT 10SM FEW050 29/24 A3003 RMK AO2 SLP168 T02940239
Pressure 30.03 in
Visibility 10.0 miles
Clouds Few 5000 ft
Heat Index 82 °F
Dew Point 53 °F
Humidity 35%
Rainfall 0.00 in
Snow Depth Not available.
6:51 AM 8:33 PM
Last Quarter, 37% visible
METAR KTLH 280053Z 18004KT 10SM FEW050 29/24 A3003 RMK AO2 SLP168 T02940239

10-Day Weather Forecast

Almanac

Astronomy

Jul. 27, 2016 Rise Set
Actual Time
Civil Twilight
Nautical Twilight
Astronomical Twilight
Moon
Length of Visible Light
Length of Day
Tomorrow will be .
, % of the Moon is Illuminated

Today's Extremes

State Highs State Lows

Community

WunderPhotos

Upload Photos

1,928,002 photos uploaded!

WunderBlog® & News

Nearby

Air Quality

  Air Quality AQ Index Pollutant
Not available.

Snow Depth

Station Depth Elevation

Earthquake Activity

City Distance Mag. Time & Date
Minimum magnitude displayed is 2.5.

Coastal Water Temperatures

Place Temperature

Stations

Nearby Weather Stations

Station Location Temp. Windchill Dew Point Humidity Wind Precip. Elev Updated Type
                   

Watches & Warnings

There are currently no watches in effect.